Time;durP1;ratioP1;P1;durP2;ratioP2;P2;SDS_P1;SDS_P2;PMS_P1;PMS_P2;Temp;Humidity;BMP_temperature;BMP_pressure;BME280_temperature;BME280_humidity;BME280_pressure;Samples;Min_cycle;Max_cycle;Signal;HPM_P1;HPM_P2
2022/07/10 00:02:14;;;;;;;3.10;2.00;;;;;;;;;;5074096;28;20522;-74
2022/07/10 00:04:41;;;;;;;3.87;2.33;;;;;;;;;;5073994;28;20488;-74
2022/07/10 00:07:08;;;;;;;4.77;2.30;;;;;;;;;;5083308;28;20439;-74
2022/07/10 00:09:35;;;;;;;6.10;2.40;;;;;;;;;;5087264;28;20475;-73
2022/07/10 00:12:02;;;;;;;6.33;2.30;;;;;;;;;;5090050;28;20430;-74
2022/07/10 00:14:30;;;;;;;4.23;2.23;;;;;;;;;;5092051;28;20452;-74
2022/07/10 00:16:57;;;;;;;3.30;2.20;;;;;;;;;;5091566;28;20440;-74
2022/07/10 00:19:25;;;;;;;5.87;2.30;;;;;;;;;;5092291;28;20450;-74
2022/07/10 00:21:53;;;;;;;5.00;2.20;;;;;;;;;;5092089;28;20446;-74
2022/07/10 00:24:20;;;;;;;3.10;2.10;;;;;;;;;;5093445;28;20454;-74
2022/07/10 00:26:47;;;;;;;3.10;2.13;;;;;;;;;;5093595;28;20460;-74
2022/07/10 00:29:14;;;;;;;3.53;2.20;;;;;;;;;;5090359;28;20466;-74
2022/07/10 00:31:41;;;;;;;5.77;2.30;;;;;;;;;;5085926;28;20466;-75
2022/07/10 00:34:09;;;;;;;3.87;2.13;;;;;;;;;;5089533;28;20446;-74
2022/07/10 00:36:37;;;;;;;3.97;2.40;;;;;;;;;;5091231;28;20466;-74
2022/07/10 00:39:04;;;;;;;6.10;2.30;;;;;;;;;;5090862;28;20855;-74
2022/07/10 00:41:31;;;;;;;4.20;2.00;;;;;;;;;;5091771;28;20444;-74
2022/07/10 00:43:59;;;;;;;6.27;2.23;;;;;;;;;;5091747;28;20459;-74
2022/07/10 00:46:27;;;;;;;5.87;2.20;;;;;;;;;;5087219;28;20474;-74
2022/07/10 00:48:54;;;;;;;3.80;2.30;;;;;;;;;;5087400;28;20432;-74
2022/07/10 00:51:22;;;;;;;3.33;1.80;;;;;;;;;;5088589;28;20481;-74
2022/07/10 00:53:50;;;;;;;6.37;2.80;;;;;;;;;;5089875;28;20437;-74
2022/07/10 00:56:19;;;;;;;3.83;2.30;;;;;;;;;;5090785;28;20969;-74
2022/07/10 00:58:47;;;;;;;4.10;2.20;;;;;;;;;;5091877;28;20452;-74
2022/07/10 01:01:15;;;;;;;6.33;2.40;;;;;;;;;;5090147;28;21000;-74
2022/07/10 01:03:43;;;;;;;3.20;2.40;;;;;;;;;;5092909;28;20804;-74
2022/07/10 01:06:10;;;;;;;3.20;2.10;;;;;;;;;;5092326;28;20550;-74
2022/07/10 01:08:38;;;;;;;4.50;2.00;;;;;;;;;;5088332;28;20532;-74
2022/07/10 01:11:06;;;;;;;8.73;2.57;;;;;;;;;;5085829;28;20499;-74
2022/07/10 01:13:33;;;;;;;5.90;2.27;;;;;;;;;;5089629;28;20535;-74
2022/07/10 01:16:01;;;;;;;5.17;2.20;;;;;;;;;;5091178;28;20458;-74
2022/07/10 01:18:28;;;;;;;2.57;1.83;;;;;;;;;;5090703;28;21012;-74
2022/07/10 01:20:57;;;;;;;10.00;2.30;;;;;;;;;;5092035;28;20482;-74
2022/07/10 01:23:24;;;;;;;6.40;2.37;;;;;;;;;;5095610;28;20462;-74
2022/07/10 01:25:52;;;;;;;4.70;2.70;;;;;;;;;;5096678;28;20479;-74
2022/07/10 01:28:21;;;;;;;5.53;2.77;;;;;;;;;;5097845;28;20507;-75
2022/07/10 01:30:48;;;;;;;4.20;2.30;;;;;;;;;;5099002;28;20492;-73
2022/07/10 01:33:15;;;;;;;4.40;1.97;;;;;;;;;;5093431;28;20446;-74
2022/07/10 01:35:43;;;;;;;3.00;2.10;;;;;;;;;;5093921;28;20447;-74
2022/07/10 01:38:11;;;;;;;3.93;2.20;;;;;;;;;;5095392;28;20443;-74
2022/07/10 01:40:39;;;;;;;3.40;2.57;;;;;;;;;;5094447;28;20533;-74
2022/07/10 01:43:06;;;;;;;3.17;1.80;;;;;;;;;;5095294;28;20445;-74
2022/07/10 01:45:34;;;;;;;5.87;1.90;;;;;;;;;;5095078;28;20464;-74
2022/07/10 01:48:01;;;;;;;4.77;2.03;;;;;;;;;;5096100;28;20456;-74
2022/07/10 01:50:28;;;;;;;2.70;1.73;;;;;;;;;;5096785;28;20844;-74
2022/07/10 01:52:56;;;;;;;3.93;2.17;;;;;;;;;;5093408;28;20440;-74
2022/07/10 01:55:24;;;;;;;3.27;1.83;;;;;;;;;;5090457;28;20451;-75
2022/07/10 01:57:52;;;;;;;4.83;2.30;;;;;;;;;;5092877;28;20437;-74
2022/07/10 02:00:19;;;;;;;3.20;1.80;;;;;;;;;;5094361;28;20450;-74
2022/07/10 02:04:40;;;;;;;4.17;2.17;;;;;;;;;;5093817;28;20455;-75
2022/07/10 02:05:32;;;;;;;4.57;1.80;;;;;;;;;;5093772;28;20451;-74
2022/07/10 02:07:59;;;;;;;3.53;2.10;;;;;;;;;;5094574;28;20435;-74
2022/07/10 02:10:28;;;;;;;2.80;1.50;;;;;;;;;;5095931;28;20866;-73
2022/07/10 02:12:55;;;;;;;4.10;1.87;;;;;;;;;;5096358;28;20824;-74
2022/07/10 02:15:23;;;;;;;6.33;2.00;;;;;;;;;;5092658;28;20458;-74
2022/07/10 02:17:50;;;;;;;3.43;1.60;;;;;;;;;;5090069;28;20437;-74
2022/07/10 02:20:17;;;;;;;4.10;1.87;;;;;;;;;;5092328;28;20882;-74
2022/07/10 02:22:45;;;;;;;3.00;1.50;;;;;;;;;;5094132;28;20456;-74
2022/07/10 02:25:12;;;;;;;5.30;2.47;;;;;;;;;;5093480;28;20463;-74
2022/07/10 02:27:40;;;;;;;2.47;1.90;;;;;;;;;;5094205;28;20447;-74
2022/07/10 02:30:08;;;;;;;4.70;2.23;;;;;;;;;;5094348;28;20482;-74
2022/07/10 02:32:35;;;;;;;4.13;2.03;;;;;;;;;;5094668;28;20461;-74
2022/07/10 02:35:03;;;;;;;2.80;1.90;;;;;;;;;;5095567;28;20468;-74
2022/07/10 02:37:30;;;;;;;5.40;1.80;;;;;;;;;;5087790;28;21213;-75
2022/07/10 02:39:57;;;;;;;6.60;2.00;;;;;;;;;;5084990;28;20449;-74
2022/07/10 02:42:25;;;;;;;4.53;1.63;;;;;;;;;;5091874;28;20449;-75
2022/07/10 02:44:53;;;;;;;5.00;2.00;;;;;;;;;;5093925;28;20453;-74
2022/07/10 02:47:20;;;;;;;5.57;1.93;;;;;;;;;;5093085;28;20948;-74
2022/07/10 02:49:47;;;;;;;5.37;1.87;;;;;;;;;;5094216;28;20429;-74
2022/07/10 02:52:15;;;;;;;6.70;1.90;;;;;;;;;;5093871;28;20447;-74
2022/07/10 02:54:42;;;;;;;7.33;2.27;;;;;;;;;;5094586;28;20520;-74
2022/07/10 02:57:09;;;;;;;7.53;2.37;;;;;;;;;;5095805;28;20478;-74
2022/07/10 02:59:36;;;;;;;7.97;1.83;;;;;;;;;;5092468;28;20429;-74
2022/07/10 03:02:05;;;;;;;5.10;1.73;;;;;;;;;;5089237;28;20441;-74
2022/07/10 03:04:33;;;;;;;4.97;1.97;;;;;;;;;;5091416;28;20451;-74
2022/07/10 03:07:00;;;;;;;7.60;2.53;;;;;;;;;;5093124;28;20444;-74
2022/07/10 03:09:27;;;;;;;7.43;2.17;;;;;;;;;;5092542;28;20472;-74
2022/07/10 03:11:54;;;;;;;3.20;1.90;;;;;;;;;;5093242;28;21113;-74
2022/07/10 03:14:21;;;;;;;4.00;2.20;;;;;;;;;;5093640;28;20444;-74
2022/07/10 03:16:48;;;;;;;3.13;1.83;;;;;;;;;;5094352;28;20491;-74
2022/07/10 03:19:17;;;;;;;4.13;2.40;;;;;;;;;;5095311;28;20971;-74
2022/07/10 03:21:45;;;;;;;7.27;2.17;;;;;;;;;;5091764;28;20477;-74
2022/07/10 03:24:12;;;;;;;3.67;1.87;;;;;;;;;;5088915;28;20442;-74
2022/07/10 03:26:40;;;;;;;5.20;2.40;;;;;;;;;;5090582;28;20543;-74
2022/07/10 03:29:07;;;;;;;6.00;2.07;;;;;;;;;;5092849;28;20446;-74
2022/07/10 03:31:34;;;;;;;3.90;1.77;;;;;;;;;;5091838;28;20489;-74
2022/07/10 03:34:01;;;;;;;3.83;2.00;;;;;;;;;;5092781;28;20453;-74
2022/07/10 03:36:30;;;;;;;5.47;2.90;;;;;;;;;;5093346;28;20555;-74
2022/07/10 03:38:57;;;;;;;3.53;2.10;;;;;;;;;;5093863;28;20537;-74
2022/07/10 03:41:24;;;;;;;7.80;1.93;;;;;;;;;;5094914;28;20454;-74
2022/07/10 03:43:51;;;;;;;2.53;1.70;;;;;;;;;;5091827;28;20442;-74
2022/07/10 03:46:18;;;;;;;5.10;2.40;;;;;;;;;;5088617;28;20457;-74
2022/07/10 03:48:46;;;;;;;6.33;1.87;;;;;;;;;;5089920;28;20443;-75
2022/07/10 03:51:13;;;;;;;5.03;2.03;;;;;;;;;;5092404;28;20482;-74
2022/07/10 03:53:41;;;;;;;7.60;2.03;;;;;;;;;;5091765;28;20437;-74
2022/07/10 03:56:09;;;;;;;3.50;1.80;;;;;;;;;;5092498;28;20554;-74
2022/07/10 03:58:55;;;;;;;11.03;2.63;;;;;;;;;;5091409;28;20438;-74
2022/07/10 04:01:22;;;;;;;4.07;2.30;;;;;;;;;;5093549;28;20460;-74
2022/07/10 04:03:49;;;;;;;7.33;2.10;;;;;;;;;;5094566;28;20444;-74
2022/07/10 04:06:16;;;;;;;3.13;2.00;;;;;;;;;;5091097;28;20545;-74
2022/07/10 04:08:45;;;;;;;3.37;1.97;;;;;;;;;;5087956;28;20794;-74
2022/07/10 04:11:12;;;;;;;2.57;1.60;;;;;;;;;;5089866;28;20486;-74
2022/07/10 04:13:39;;;;;;;2.90;1.77;;;;;;;;;;5091860;28;20435;-74
2022/07/10 04:16:10;;;;;;;6.03;2.77;;;;;;;;;;5091343;28;20815;-74
2022/07/10 04:18:37;;;;;;;4.07;2.07;;;;;;;;;;5091941;28;21019;-74
2022/07/10 04:21:04;;;;;;;5.20;2.03;;;;;;;;;;5092362;28;20450;-74
2022/07/10 04:23:31;;;;;;;4.23;2.00;;;;;;;;;;5093207;28;20463;-74
2022/07/10 04:26:00;;;;;;;2.30;1.83;;;;;;;;;;5093958;28;20466;-74
2022/07/10 04:28:27;;;;;;;5.20;2.10;;;;;;;;;;5090687;28;20429;-74
2022/07/10 04:30:54;;;;;;;6.90;2.50;;;;;;;;;;5087278;28;20486;-74
2022/07/10 04:33:21;;;;;;;3.37;1.80;;;;;;;;;;5089610;28;20428;-74
2022/07/10 04:35:48;;;;;;;4.17;2.20;;;;;;;;;;5091574;28;20968;-74
2022/07/10 04:38:15;;;;;;;6.30;2.27;;;;;;;;;;5090925;28;20448;-74
2022/07/10 04:40:43;;;;;;;4.10;2.40;;;;;;;;;;5091548;28;20435;-75
2022/07/10 04:43:11;;;;;;;3.60;1.90;;;;;;;;;;5092284;28;20451;-74
2022/07/10 04:45:38;;;;;;;3.53;1.87;;;;;;;;;;5092571;28;20498;-74
2022/07/10 04:48:06;;;;;;;4.93;2.50;;;;;;;;;;5093819;28;20925;-74
2022/07/10 04:50:34;;;;;;;5.73;1.93;;;;;;;;;;5090457;28;20917;-74
2022/07/10 04:53:01;;;;;;;4.80;2.00;;;;;;;;;;5087235;28;20435;-74
2022/07/10 04:55:28;;;;;;;5.60;2.17;;;;;;;;;;5088661;28;21023;-74
2022/07/10 04:57:55;;;;;;;2.83;1.80;;;;;;;;;;5090981;28;20787;-77
2022/07/10 05:00:24;;;;;;;2.90;1.90;;;;;;;;;;5090628;28;20435;-75
2022/07/10 05:02:51;;;;;;;2.90;1.70;;;;;;;;;;5091557;28;20971;-78
2022/07/10 05:05:18;;;;;;;5.27;2.00;;;;;;;;;;5091693;28;20972;-74
2022/07/10 05:07:45;;;;;;;3.33;2.23;;;;;;;;;;5092260;28;20485;-74
2022/07/10 05:10:13;;;;;;;4.90;2.20;;;;;;;;;;5093580;28;20439;-74
2022/07/10 05:12:41;;;;;;;3.17;1.90;;;;;;;;;;5090911;28;20486;-74
2022/07/10 05:15:09;;;;;;;8.90;2.17;;;;;;;;;;5087036;28;20456;-75
2022/07/10 05:17:37;;;;;;;4.60;2.23;;;;;;;;;;5088727;28;20414;-75
2022/07/10 05:20:05;;;;;;;5.00;2.20;;;;;;;;;;5091162;28;20439;-74
2022/07/10 05:22:32;;;;;;;7.50;2.50;;;;;;;;;;5090390;28;20463;-74
2022/07/10 05:25:00;;;;;;;5.50;2.50;;;;;;;;;;5091439;28;20438;-74
2022/07/10 05:27:27;;;;;;;4.13;2.00;;;;;;;;;;5091808;28;20503;-74
2022/07/10 05:29:54;;;;;;;5.73;2.63;;;;;;;;;;5092254;28;20466;-75
2022/07/10 05:32:22;;;;;;;3.43;1.90;;;;;;;;;;5092957;28;20991;-75
2022/07/10 05:34:51;;;;;;;6.13;1.93;;;;;;;;;;5091631;28;20443;-75
2022/07/10 05:37:18;;;;;;;3.60;2.00;;;;;;;;;;5086787;28;20437;-75
2022/07/10 05:39:45;;;;;;;3.60;2.10;;;;;;;;;;5088168;28;20425;-74
2022/07/10 05:42:13;;;;;;;5.27;2.40;;;;;;;;;;5090991;28;20877;-75
2022/07/10 05:44:40;;;;;;;7.33;3.70;;;;;;;;;;5090402;28;20442;-75
2022/07/10 05:47:08;;;;;;;4.60;2.10;;;;;;;;;;5090888;28;20488;-75
2022/07/10 05:49:35;;;;;;;2.30;1.47;;;;;;;;;;5091372;28;20789;-75
2022/07/10 05:52:04;;;;;;;3.93;2.00;;;;;;;;;;5091519;28;20487;-75
2022/07/10 05:54:31;;;;;;;4.80;2.30;;;;;;;;;;5093241;28;20418;-75
2022/07/10 05:56:59;;;;;;;3.20;1.80;;;;;;;;;;5092454;28;20427;-76
2022/07/10 05:59:26;;;;;;;2.20;1.63;;;;;;;;;;5086516;28;20432;-76
2022/07/10 06:01:54;;;;;;;3.90;1.60;;;;;;;;;;5087821;28;20766;-76
2022/07/10 06:04:21;;;;;;;2.73;1.60;;;;;;;;;;5090063;28;20908;-75
2022/07/10 06:06:48;;;;;;;6.07;1.90;;;;;;;;;;5089956;28;20455;-75
2022/07/10 06:09:16;;;;;;;3.10;1.93;;;;;;;;;;5092972;28;20435;-76
2022/07/10 06:11:45;;;;;;;5.13;1.73;;;;;;;;;;5094836;28;20474;-75
2022/07/10 06:14:12;;;;;;;3.23;1.60;;;;;;;;;;5094808;28;20444;-78
2022/07/10 06:16:39;;;;;;;5.17;1.87;;;;;;;;;;5096537;28;21048;-81
2022/07/10 06:19:07;;;;;;;3.00;2.00;;;;;;;;;;5096613;28;20483;-79
2022/07/10 06:21:34;;;;;;;4.40;2.00;;;;;;;;;;5090000;28;20454;-75
2022/07/10 06:24:01;;;;;;;5.47;1.97;;;;;;;;;;5090428;28;20431;-75
2022/07/10 06:26:30;;;;;;;7.57;2.10;;;;;;;;;;5093324;28;20463;-76
2022/07/10 06:28:57;;;;;;;4.70;1.90;;;;;;;;;;5093201;28;20444;-75
2022/07/10 06:31:24;;;;;;;5.70;1.90;;;;;;;;;;5093614;28;20487;-77
2022/07/10 06:33:51;;;;;;;4.17;1.60;;;;;;;;;;5094518;28;20446;-76
2022/07/10 06:36:18;;;;;;;3.10;1.90;;;;;;;;;;5071695;22;20483;-73
2022/07/10 06:38:46;;;;;;;5.63;1.90;;;;;;;;;;5049183;28;20524;-74
2022/07/10 06:41:13;;;;;;;4.60;1.73;;;;;;;;;;5049767;28;20945;-74
2022/07/10 06:43:41;;;;;;;2.90;1.70;;;;;;;;;;5052784;28;20471;-74
2022/07/10 06:46:09;;;;;;;5.77;2.10;;;;;;;;;;5066000;28;20988;-74
2022/07/10 06:48:39;;;;;;;5.47;1.83;;;;;;;;;;5073678;28;20817;-75
2022/07/10 06:51:07;;;;;;;8.67;2.33;;;;;;;;;;5073858;28;20447;-75
2022/07/10 06:53:35;;;;;;;6.93;1.50;;;;;;;;;;5072436;28;20471;-75
2022/07/10 06:56:02;;;;;;;4.20;1.70;;;;;;;;;;5075333;28;20506;-74
2022/07/10 06:58:29;;;;;;;3.50;1.90;;;;;;;;;;5075269;28;20506;-74
2022/07/10 07:00:58;;;;;;;4.30;2.30;;;;;;;;;;5064118;28;20520;-75
2022/07/10 07:03:25;;;;;;;4.43;2.67;;;;;;;;;;5062498;28;20523;-74
2022/07/10 07:05:53;;;;;;;2.60;1.93;;;;;;;;;;5070653;28;20456;-76
2022/07/10 07:08:20;;;;;;;6.17;2.40;;;;;;;;;;5070968;28;20442;-77
2022/07/10 07:10:47;;;;;;;10.27;2.27;;;;;;;;;;5072808;28;20482;-75
2022/07/10 07:13:15;;;;;;;3.87;2.30;;;;;;;;;;5073653;28;20977;-75
2022/07/10 07:15:50;;;;;;;8.57;2.67;;;;;;;;;;5072635;28;20463;-75
2022/07/10 07:18:21;;;;;;;5.93;2.07;;;;;;;;;;5075078;28;20838;-74
2022/07/10 07:23:29;;;;;;;4.00;1.93;;;;;;;;;;5063276;28;20526;-74
2022/07/10 07:25:56;;;;;;;3.50;2.37;;;;;;;;;;5062898;28;20796;-74
2022/07/10 07:28:23;;;;;;;4.03;2.00;;;;;;;;;;5070716;28;20450;-76
2022/07/10 07:30:51;;;;;;;3.60;2.37;;;;;;;;;;5072398;28;20441;-74
2022/07/10 07:33:19;;;;;;;4.33;2.37;;;;;;;;;;5071245;28;20493;-72
2022/07/10 07:35:47;;;;;;;2.70;2.30;;;;;;;;;;5072745;28;20628;-75
2022/07/10 07:38:14;;;;;;;3.50;2.47;;;;;;;;;;5072274;28;20422;-75
2022/07/10 07:40:41;;;;;;;3.03;2.30;;;;;;;;;;5074516;28;20950;-75
2022/07/10 07:43:08;;;;;;;5.77;3.30;;;;;;;;;;5074548;28;20415;-75
2022/07/10 07:45:35;;;;;;;3.20;2.20;;;;;;;;;;5065558;28;20452;-75
2022/07/10 07:48:03;;;;;;;2.67;2.03;;;;;;;;;;5061715;28;20441;-75
2022/07/10 07:50:32;;;;;;;5.97;2.40;;;;;;;;;;5068268;28;20536;-75
2022/07/10 07:53:00;;;;;;;3.53;1.97;;;;;;;;;;5072151;28;20848;-75
2022/07/10 07:55:28;;;;;;;5.43;2.00;;;;;;;;;;5070342;28;20443;-74
2022/07/10 07:57:56;;;;;;;9.33;3.03;;;;;;;;;;5072384;28;20447;-76
2022/07/10 08:00:24;;;;;;;3.13;2.13;;;;;;;;;;5071132;28;20445;-76
2022/07/10 08:02:51;;;;;;;3.30;1.80;;;;;;;;;;5073405;28;20452;-75
2022/07/10 08:05:19;;;;;;;4.87;2.40;;;;;;;;;;5074179;28;20484;-75
2022/07/10 08:07:48;;;;;;;4.80;1.90;;;;;;;;;;5067985;28;20415;-76
2022/07/10 08:10:16;;;;;;;4.20;2.40;;;;;;;;;;5060353;28;20528;-74
2022/07/10 08:12:45;;;;;;;4.43;2.57;;;;;;;;;;5056900;28;20492;-76
2022/07/10 08:15:13;;;;;;;9.10;3.60;;;;;;;;;;5050475;28;20461;-76
2022/07/10 08:17:40;;;;;;;7.17;2.40;;;;;;;;;;5051075;28;20441;-77
2022/07/10 08:20:09;;;;;;;4.97;2.40;;;;;;;;;;5051743;28;20934;-77
2022/07/10 08:22:36;;;;;;;6.13;2.50;;;;;;;;;;5052343;28;20477;-77
2022/07/10 08:25:05;;;;;;;4.37;3.13;;;;;;;;;;5068184;28;20515;-75
2022/07/10 08:27:32;;;;;;;3.00;2.07;;;;;;;;;;5073750;28;20440;-77
2022/07/10 08:30:00;;;;;;;6.43;2.57;;;;;;;;;;5067790;28;21000;-75
2022/07/10 08:32:27;;;;;;;5.13;2.97;;;;;;;;;;5061171;28;20467;-76
2022/07/10 08:34:54;;;;;;;4.33;2.40;;;;;;;;;;5056584;28;20450;-76
2022/07/10 08:37:22;;;;;;;4.50;2.63;;;;;;;;;;5051082;28;20819;-75
2022/07/10 08:39:49;;;;;;;4.97;2.70;;;;;;;;;;5050388;28;20457;-76
2022/07/10 08:42:19;;;;;;;4.40;2.43;;;;;;;;;;5051257;28;20547;-76
2022/07/10 08:44:46;;;;;;;3.33;3.03;;;;;;;;;;5051342;28;20438;-76
2022/07/10 08:47:14;;;;;;;3.20;2.50;;;;;;;;;;5061495;28;20865;-79
2022/07/10 08:49:47;;;;;;;3.90;2.37;;;;;;;;;;5059270;28;20941;-78
2022/07/10 08:52:18;;;;;;;4.27;2.57;;;;;;;;;;5057070;28;20539;-75
2022/07/10 08:54:45;;;;;;;4.10;2.43;;;;;;;;;;5051113;28;20446;-73
2022/07/10 08:57:13;;;;;;;4.43;2.93;;;;;;;;;;5050546;28;20471;-73
2022/07/10 08:59:41;;;;;;;7.30;2.33;;;;;;;;;;5051560;28;20449;-74
2022/07/10 09:02:08;;;;;;;3.77;1.90;;;;;;;;;;5051848;28;20441;-78
2022/07/10 09:04:35;;;;;;;4.80;2.30;;;;;;;;;;5066035;28;20956;-79
2022/07/10 09:07:04;;;;;;;4.87;2.50;;;;;;;;;;5073269;28;20854;-82
2022/07/10 09:09:31;;;;;;;4.15;2.22;;;;;;;;;;5069142;28;20513;-84
2022/07/10 09:11:58;;;;;;;4.13;2.27;;;;;;;;;;5059532;28;20199;-81
2022/07/10 09:14:27;;;;;;;5.90;2.33;;;;;;;;;;5059227;28;20520;-74
2022/07/10 09:16:56;;;;;;;7.00;2.77;;;;;;;;;;5050765;28;20528;-75
2022/07/10 09:19:24;;;;;;;10.93;5.30;;;;;;;;;;5050350;28;20463;-74
2022/07/10 09:21:52;;;;;;;6.53;2.50;;;;;;;;;;5051360;28;20451;-74
2022/07/10 09:24:20;;;;;;;4.80;3.23;;;;;;;;;;5050251;28;20535;-75
2022/07/10 09:26:59;;;;;;;10.10;5.10;;;;;;;;;;5062136;28;20980;-75
2022/07/10 09:29:26;;;;;;;9.23;3.10;;;;;;;;;;5073199;28;20832;-74
2022/07/10 09:31:54;;;;;;;7.40;2.93;;;;;;;;;;5070191;28;20531;-76
2022/07/10 09:34:37;;;;;;;4.30;2.50;;;;;;;;;;5059753;28;20524;-76
2022/07/10 09:37:19;;;;;;;3.63;2.60;;;;;;;;;;5022673;28;20426;-76
2022/07/10 09:39:53;;;;;;;3.40;2.03;;;;;;;;;;5029919;28;20442;-76
2022/07/10 09:42:36;;;;;;;5.30;2.40;;;;;;;;;;5030941;28;20966;-76
2022/07/10 09:45:16;;;;;;;4.00;2.13;;;;;;;;;;5033667;28;20462;-76
2022/07/10 09:47:44;;;;;;;4.07;1.60;;;;;;;;;;5033911;28;20440;-76
2022/07/10 09:50:22;;;;;;;5.00;1.83;;;;;;;;;;5034970;28;20461;-76
2022/07/10 09:52:51;;;;;;;3.90;1.70;;;;;;;;;;5037538;28;20481;-75
2022/07/10 09:55:20;;;;;;;3.13;1.60;;;;;;;;;;5031098;28;20469;-75
2022/07/10 09:57:49;;;;;;;4.33;1.93;;;;;;;;;;5022688;28;20443;-75
2022/07/10 10:00:17;;;;;;;3.80;1.80;;;;;;;;;;5028121;28;20533;-75
2022/07/10 10:02:44;;;;;;;2.77;1.73;;;;;;;;;;5034453;28;20445;-75
2022/07/10 10:05:12;;;;;;;2.43;1.67;;;;;;;;;;5033735;28;20454;-74
2022/07/10 10:07:41;;;;;;;4.90;1.80;;;;;;;;;;5034400;28;20446;-74
2022/07/10 10:10:09;;;;;;;3.93;1.70;;;;;;;;;;5034676;28;20999;-75
2022/07/10 10:12:41;;;;;;;2.77;1.70;;;;;;;;;;5035151;28;20588;-75
2022/07/10 10:15:12;;;;;;;3.70;1.80;;;;;;;;;;5036558;28;20973;-74
2022/07/10 10:17:40;;;;;;;4.90;1.90;;;;;;;;;;5032360;28;20439;-74
2022/07/10 10:22:52;;;;;;;3.93;1.80;;;;;;;;;;5030478;28;20430;-74
2022/07/10 10:25:19;;;;;;;4.30;1.70;;;;;;;;;;5034055;28;20864;-74
2022/07/10 10:27:46;;;;;;;3.53;1.90;;;;;;;;;;5033399;28;20438;-74
2022/07/10 10:30:14;;;;;;;3.17;2.07;;;;;;;;;;5034124;28;20539;-74
2022/07/10 10:32:41;;;;;;;3.43;1.70;;;;;;;;;;5034394;28;20480;-74
2022/07/10 10:35:09;;;;;;;3.83;2.20;;;;;;;;;;5042808;28;20490;-74
2022/07/10 10:37:37;;;;;;;2.93;2.10;;;;;;;;;;5076044;28;20447;-75
2022/07/10 10:40:07;;;;;;;9.87;2.40;;;;;;;;;;5072336;28;20919;-74
2022/07/10 10:42:35;;;;;;;5.40;2.50;;;;;;;;;;5062186;28;20494;-74
2022/07/10 10:45:17;;;;;;;2.70;2.03;;;;;;;;;;5061627;28;20807;-74
2022/07/10 10:47:58;;;;;;;5.97;2.07;;;;;;;;;;5053261;28;20447;-75
2022/07/10 10:50:38;;;;;;;6.33;2.07;;;;;;;;;;5052832;28;20452;-75
2022/07/10 10:53:05;;;;;;;5.00;2.27;;;;;;;;;;5053451;28;20472;-74
2022/07/10 10:55:34;;;;;;;6.30;2.43;;;;;;;;;;5052998;28;20493;-74
2022/07/10 10:58:13;;;;;;;3.60;2.20;;;;;;;;;;5069968;28;20456;-74
2022/07/10 11:00:41;;;;;;;4.30;2.03;;;;;;;;;;5075506;28;20522;-75
2022/07/10 11:03:23;;;;;;;3.70;2.27;;;;;;;;;;5071442;28;20426;-75
2022/07/10 11:05:51;;;;;;;3.63;2.50;;;;;;;;;;5059678;28;20464;-75
2022/07/10 11:08:33;;;;;;;3.57;2.40;;;;;;;;;;5067532;28;20451;-77
2022/07/10 11:11:02;;;;;;;5.27;2.10;;;;;;;;;;5072791;28;20956;-76
2022/07/10 11:13:30;;;;;;;4.13;2.37;;;;;;;;;;5072271;28;20490;-75
2022/07/10 11:15:58;;;;;;;2.30;1.90;;;;;;;;;;5072949;28;20460;-81
2022/07/10 11:18:28;;;;;;;3.23;2.17;;;;;;;;;;5073359;28;20945;-75
2022/07/10 11:20:55;;;;;;;3.13;1.87;;;;;;;;;;5074005;28;20456;-77
2022/07/10 11:23:38;;;;;;;2.43;2.00;;;;;;;;;;5075122;28;20440;-75
2022/07/10 11:26:10;;;;;;;4.17;2.20;;;;;;;;;;5069042;28;20957;-76
2022/07/10 11:28:43;;;;;;;3.80;2.47;;;;;;;;;;5063152;28;20960;-75
2022/07/10 11:31:10;;;;;;;9.80;2.30;;;;;;;;;;5057129;28;20946;-80
2022/07/10 11:33:42;;;;;;;4.33;2.70;;;;;;;;;;5052681;28;20495;-76
2022/07/10 11:36:13;;;;;;;4.27;3.10;;;;;;;;;;5051621;28;20473;-74
2022/07/10 11:38:40;;;;;;;3.70;2.10;;;;;;;;;;5051584;28;20816;-77
2022/07/10 11:41:15;;;;;;;5.53;2.00;;;;;;;;;;5053044;28;20445;-77
2022/07/10 11:43:50;;;;;;;6.40;2.60;;;;;;;;;;5071288;28;20878;-76
2022/07/10 11:46:17;;;;;;;2.63;2.20;;;;;;;;;;5073461;28;20452;-76
2022/07/10 11:48:45;;;;;;;2.43;2.00;;;;;;;;;;5069644;28;20524;-76
2022/07/10 11:51:20;;;;;;;4.50;2.67;;;;;;;;;;5060665;28;20447;-75
2022/07/10 11:53:56;;;;;;;3.30;1.80;;;;;;;;;;5065349;28;20574;-75
2022/07/10 11:56:24;;;;;;;3.50;2.10;;;;;;;;;;5070616;28;20650;-75
2022/07/10 11:58:55;;;;;;;5.87;1.80;;;;;;;;;;5071509;28;20455;-75
2022/07/10 12:01:23;;;;;;;2.90;2.00;;;;;;;;;;5072182;28;20536;-75
2022/07/10 12:03:56;;;;;;;6.00;2.83;;;;;;;;;;5072587;28;20816;-75
2022/07/10 12:06:24;;;;;;;3.83;2.10;;;;;;;;;;5073063;28;20476;-75
2022/07/10 12:08:51;;;;;;;3.33;1.90;;;;;;;;;;5073953;28;20529;-75
2022/07/10 12:11:19;;;;;;;2.10;1.50;;;;;;;;;;5069061;28;20444;-75
2022/07/10 12:13:49;;;;;;;2.27;1.50;;;;;;;;;;5061807;28;20484;-77
2022/07/10 12:16:16;;;;;;;3.90;1.83;;;;;;;;;;5055569;28;20457;-77
2022/07/10 12:18:44;;;;;;;2.13;1.90;;;;;;;;;;5051837;28;20857;-76
2022/07/10 12:21:12;;;;;;;2.03;1.40;;;;;;;;;;5050567;28;20524;-81
2022/07/10 12:23:41;;;;;;;2.67;1.60;;;;;;;;;;5051846;28;20449;-77
2022/07/10 12:26:10;;;;;;;1.90;1.70;;;;;;;;;;5051770;28;20454;-77
2022/07/10 12:28:52;;;;;;;1.90;1.57;;;;;;;;;;5066169;28;20462;-79
2022/07/10 12:31:25;;;;;;;2.30;1.40;;;;;;;;;;5058220;28;20436;-78
2022/07/10 12:33:54;;;;;;;8.73;1.90;;;;;;;;;;5062161;28;20476;-77
2022/07/10 12:36:23;;;;;;;2.10;1.60;;;;;;;;;;5070793;28;20880;-80
2022/07/10 12:38:58;;;;;;;2.27;1.50;;;;;;;;;;5070589;28;20979;-77
2022/07/10 12:41:26;;;;;;;2.00;1.60;;;;;;;;;;5071771;28;20458;-81
2022/07/10 12:43:54;;;;;;;2.67;1.70;;;;;;;;;;5071939;28;20934;-85
2022/07/10 12:46:22;;;;;;;2.37;1.83;;;;;;;;;;5070603;28;20567;-84
2022/07/10 12:49:04;;;;;;;1.93;1.40;;;;;;;;;;5073638;28;20757;-82
2022/07/10 12:51:33;;;;;;;2.60;1.80;;;;;;;;;;5072672;28;20475;-77
2022/07/10 12:54:01;;;;;;;2.73;1.70;;;;;;;;;;5059286;28;20483;-79
2022/07/10 12:56:29;;;;;;;2.47;2.00;;;;;;;;;;5059185;28;20729;-78
2022/07/10 12:58:56;;;;;;;2.63;2.00;;;;;;;;;;5070774;28;20551;-77
2022/07/10 13:01:24;;;;;;;2.50;2.00;;;;;;;;;;5070632;28;20436;-78
2022/07/10 13:03:58;;;;;;;2.00;1.60;;;;;;;;;;5071383;28;20448;-80
2022/07/10 13:06:27;;;;;;;2.80;1.90;;;;;;;;;;5071629;28;20558;-78
2022/07/10 13:08:56;;;;;;;3.00;2.23;;;;;;;;;;5071412;28;20453;-78
2022/07/10 13:11:23;;;;;;;2.60;1.83;;;;;;;;;;5072275;28;20808;-77
2022/07/10 13:13:51;;;;;;;5.23;2.13;;;;;;;;;;5073416;28;20575;-76
2022/07/10 13:16:18;;;;;;;4.07;1.90;;;;;;;;;;5060554;28;20968;-77
2022/07/10 13:18:45;;;;;;;5.37;2.07;;;;;;;;;;5065811;28;20486;-79
2022/07/10 13:21:13;;;;;;;3.03;2.20;;;;;;;;;;5053508;28;20512;-77
2022/07/10 13:23:41;;;;;;;3.73;1.90;;;;;;;;;;5054283;28;20941;-77
2022/07/10 13:26:10;;;;;;;2.37;1.70;;;;;;;;;;5055107;28;20555;-78
2022/07/10 13:28:37;;;;;;;4.50;1.90;;;;;;;;;;5055767;28;20456;-77
2022/07/10 13:31:04;;;;;;;2.80;1.70;;;;;;;;;;5059593;28;20886;-77
2022/07/10 13:33:32;;;;;;;2.77;2.33;;;;;;;;;;5077017;28;20482;-77
2022/07/10 13:36:01;;;;;;;2.93;1.97;;;;;;;;;;5076634;28;20487;-78
2022/07/10 13:38:28;;;;;;;4.43;2.00;;;;;;;;;;5064828;28;20441;-76
2022/07/10 13:40:56;;;;;;;5.37;2.20;;;;;;;;;;5064489;28;20439;-76
2022/07/10 13:43:28;;;;;;;5.30;2.20;;;;;;;;;;5053832;28;20442;-75
2022/07/10 13:45:55;;;;;;;3.20;1.97;;;;;;;;;;5053739;28;20485;-76
2022/07/10 13:48:23;;;;;;;2.83;2.33;;;;;;;;;;5054738;28;20445;-78
2022/07/10 13:50:50;;;;;;;4.00;3.10;;;;;;;;;;5054917;28;20452;-77
2022/07/10 13:53:17;;;;;;;6.20;2.90;;;;;;;;;;5057830;28;20478;-77
2022/07/10 13:55:45;;;;;;;2.30;2.10;;;;;;;;;;5076686;28;20533;-76
2022/07/10 13:58:12;;;;;;;5.00;2.00;;;;;;;;;;5075555;28;20447;-76
2022/07/10 14:00:41;;;;;;;3.73;2.30;;;;;;;;;;5064709;28;20520;-76
2022/07/10 14:03:09;;;;;;;3.90;2.20;;;;;;;;;;5062270;28;21188;-76
2022/07/10 14:05:36;;;;;;;4.63;2.23;;;;;;;;;;5072914;28;20452;-77
2022/07/10 14:08:04;;;;;;;3.70;2.07;;;;;;;;;;5073666;28;20539;-78
2022/07/10 14:10:31;;;;;;;5.97;1.97;;;;;;;;;;5073247;28;20478;-78
2022/07/10 14:12:59;;;;;;;3.90;2.13;;;;;;;;;;5073544;28;20462;-78
2022/07/10 14:15:27;;;;;;;2.70;2.20;;;;;;;;;;5073893;28;20577;-76
2022/07/10 14:17:55;;;;;;;4.30;2.10;;;;;;;;;;5074964;28;20437;-78
2022/07/10 14:20:23;;;;;;;3.73;2.10;;;;;;;;;;5076304;28;20447;-76
2022/07/10 14:22:50;;;;;;;3.27;2.43;;;;;;;;;;5064302;28;20451;-77
2022/07/10 14:25:17;;;;;;;4.30;2.20;;;;;;;;;;5061862;28;20448;-77
2022/07/10 14:27:44;;;;;;;3.53;1.93;;;;;;;;;;5072346;28;20464;-76
2022/07/10 14:30:12;;;;;;;3.97;2.53;;;;;;;;;;5071875;28;20432;-79
2022/07/10 14:32:39;;;;;;;2.80;2.00;;;;;;;;;;5073780;28;20518;-76
2022/07/10 14:35:09;;;;;;;3.40;2.13;;;;;;;;;;5074155;28;20492;-78
2022/07/10 14:37:36;;;;;;;3.23;2.20;;;;;;;;;;5073615;28;20460;-76
2022/07/10 14:40:05;;;;;;;2.70;2.17;;;;;;;;;;5076172;28;20439;-76
2022/07/10 14:42:32;;;;;;;4.00;2.40;;;;;;;;;;5075711;28;20447;-76
2022/07/10 14:44:59;;;;;;;3.10;2.13;;;;;;;;;;5064151;28;21024;-75
2022/07/10 14:47:28;;;;;;;3.27;2.00;;;;;;;;;;5063839;28;20443;-78
2022/07/10 14:49:56;;;;;;;4.27;2.10;;;;;;;;;;5072499;28;20454;-76
2022/07/10 14:52:27;;;;;;;4.00;2.37;;;;;;;;;;5072701;28;20439;-78
2022/07/10 14:54:54;;;;;;;4.07;2.27;;;;;;;;;;5073472;28;20899;-77
2022/07/10 14:57:21;;;;;;;3.63;2.40;;;;;;;;;;5073883;28;20436;-76